sensor_id;sensor_type;location;lat;lon;timestamp;temperature;humidity
38941;DHT22;43236;47.208;7.518;2023-03-23T00:00:14;12.80;92.20
38941;DHT22;43236;47.208;7.518;2023-03-23T00:03:03;12.90;92.40
38941;DHT22;43236;47.208;7.518;2023-03-23T00:05:51;12.90;92.10
38941;DHT22;43236;47.208;7.518;2023-03-23T00:08:39;13.00;92.60
38941;DHT22;43236;47.208;7.518;2023-03-23T00:11:31;12.90;92.60
38941;DHT22;43236;47.208;7.518;2023-03-23T00:14:19;13.00;92.40
38941;DHT22;43236;47.208;7.518;2023-03-23T00:17:08;13.00;92.80
38941;DHT22;43236;47.208;7.518;2023-03-23T00:19:58;13.00;93.00
38941;DHT22;43236;47.208;7.518;2023-03-23T00:22:46;13.00;93.00
38941;DHT22;43236;47.208;7.518;2023-03-23T00:25:33;13.00;93.10
38941;DHT22;43236;47.208;7.518;2023-03-23T00:28:20;12.90;93.10
38941;DHT22;43236;47.208;7.518;2023-03-23T00:31:10;12.90;93.10
38941;DHT22;43236;47.208;7.518;2023-03-23T00:33:59;12.90;92.90
38941;DHT22;43236;47.208;7.518;2023-03-23T00:36:52;12.90;92.90
38941;DHT22;43236;47.208;7.518;2023-03-23T00:39:43;12.90;93.00
38941;DHT22;43236;47.208;7.518;2023-03-23T00:42:31;12.80;92.50
38941;DHT22;43236;47.208;7.518;2023-03-23T00:45:22;12.80;93.00
38941;DHT22;43236;47.208;7.518;2023-03-23T00:48:09;12.80;93.00
38941;DHT22;43236;47.208;7.518;2023-03-23T00:50:58;12.80;93.40
38941;DHT22;43236;47.208;7.518;2023-03-23T00:53:48;12.80;92.60
38941;DHT22;43236;47.208;7.518;2023-03-23T00:56:36;12.80;92.70
38941;DHT22;43236;47.208;7.518;2023-03-23T00:59:24;12.80;92.80
38941;DHT22;43236;47.208;7.518;2023-03-23T01:02:11;12.80;92.70
38941;DHT22;43236;47.208;7.518;2023-03-23T01:04:58;12.80;93.00
38941;DHT22;43236;47.208;7.518;2023-03-23T01:07:46;12.80;92.80
38941;DHT22;43236;47.208;7.518;2023-03-23T01:10:35;12.80;92.90
38941;DHT22;43236;47.208;7.518;2023-03-23T01:13:24;12.80;93.30
38941;DHT22;43236;47.208;7.518;2023-03-23T01:16:11;12.80;93.70
38941;DHT22;43236;47.208;7.518;2023-03-23T01:18:58;12.80;93.40
38941;DHT22;43236;47.208;7.518;2023-03-23T01:21:45;12.80;93.60
38941;DHT22;43236;47.208;7.518;2023-03-23T01:24:32;12.80;93.50
38941;DHT22;43236;47.208;7.518;2023-03-23T01:27:21;12.90;93.80
38941;DHT22;43236;47.208;7.518;2023-03-23T01:30:10;12.80;94.20
38941;DHT22;43236;47.208;7.518;2023-03-23T01:32:58;12.80;94.00
38941;DHT22;43236;47.208;7.518;2023-03-23T01:35:45;12.90;94.20
38941;DHT22;43236;47.208;7.518;2023-03-23T01:38:32;12.80;94.20
38941;DHT22;43236;47.208;7.518;2023-03-23T01:41:19;12.80;94.40
38941;DHT22;43236;47.208;7.518;2023-03-23T01:47:34;12.80;94.30
38941;DHT22;43236;47.208;7.518;2023-03-23T01:50:23;12.70;94.00
38941;DHT22;43236;47.208;7.518;2023-03-23T01:53:11;12.70;93.90
38941;DHT22;43236;47.208;7.518;2023-03-23T01:55:59;12.70;93.90
38941;DHT22;43236;47.208;7.518;2023-03-23T01:58:47;12.70;94.30
38941;DHT22;43236;47.208;7.518;2023-03-23T02:01:35;12.70;94.00
38941;DHT22;43236;47.208;7.518;2023-03-23T02:04:25;12.60;93.80
38941;DHT22;43236;47.208;7.518;2023-03-23T02:07:14;12.60;93.70
38941;DHT22;43236;47.208;7.518;2023-03-23T02:10:02;12.60;93.60
38941;DHT22;43236;47.208;7.518;2023-03-23T02:12:49;12.60;93.70
38941;DHT22;43236;47.208;7.518;2023-03-23T02:15:46;12.60;93.80
38941;DHT22;43236;47.208;7.518;2023-03-23T02:18:43;12.60;93.90
38941;DHT22;43236;47.208;7.518;2023-03-23T02:24:57;12.70;94.40
38941;DHT22;43236;47.208;7.518;2023-03-23T02:31:02;12.70;94.50
38941;DHT22;43236;47.208;7.518;2023-03-23T02:33:56;12.70;94.70
38941;DHT22;43236;47.208;7.518;2023-03-23T02:36:45;12.70;94.90
38941;DHT22;43236;47.208;7.518;2023-03-23T02:39:40;12.70;94.80
38941;DHT22;43236;47.208;7.518;2023-03-23T02:42:31;12.70;94.70
38941;DHT22;43236;47.208;7.518;2023-03-23T02:45:21;12.60;94.80
38941;DHT22;43236;47.208;7.518;2023-03-23T02:48:11;12.60;94.80
38941;DHT22;43236;47.208;7.518;2023-03-23T02:51:02;12.60;94.70
38941;DHT22;43236;47.208;7.518;2023-03-23T02:53:51;12.50;94.70
38941;DHT22;43236;47.208;7.518;2023-03-23T02:56:39;12.50;94.90
38941;DHT22;43236;47.208;7.518;2023-03-23T02:59:27;12.50;94.80
38941;DHT22;43236;47.208;7.518;2023-03-23T03:02:17;12.50;94.70
38941;DHT22;43236;47.208;7.518;2023-03-23T03:05:13;12.50;94.90
38941;DHT22;43236;47.208;7.518;2023-03-23T03:08:13;12.40;94.80
38941;DHT22;43236;47.208;7.518;2023-03-23T03:11:06;12.30;94.60
38941;DHT22;43236;47.208;7.518;2023-03-23T03:13:57;12.30;94.90
38941;DHT22;43236;47.208;7.518;2023-03-23T03:16:49;12.30;95.10
38941;DHT22;43236;47.208;7.518;2023-03-23T03:19:41;12.30;94.80
38941;DHT22;43236;47.208;7.518;2023-03-23T03:22:29;12.30;94.70
38941;DHT22;43236;47.208;7.518;2023-03-23T03:25:19;12.30;94.60
38941;DHT22;43236;47.208;7.518;2023-03-23T03:28:08;12.30;94.70
38941;DHT22;43236;47.208;7.518;2023-03-23T03:30:57;12.30;94.60
38941;DHT22;43236;47.208;7.518;2023-03-23T03:33:46;12.30;94.50
38941;DHT22;43236;47.208;7.518;2023-03-23T03:36:34;12.30;94.50
38941;DHT22;43236;47.208;7.518;2023-03-23T03:39:22;12.30;94.50
38941;DHT22;43236;47.208;7.518;2023-03-23T03:42:10;12.30;94.60
38941;DHT22;43236;47.208;7.518;2023-03-23T03:44:57;12.30;94.30
38941;DHT22;43236;47.208;7.518;2023-03-23T03:47:44;12.30;94.50
38941;DHT22;43236;47.208;7.518;2023-03-23T03:50:32;12.30;94.60
38941;DHT22;43236;47.208;7.518;2023-03-23T03:53:19;12.40;95.00
38941;DHT22;43236;47.208;7.518;2023-03-23T03:56:06;12.40;94.80
38941;DHT22;43236;47.208;7.518;2023-03-23T03:58:54;12.40;94.90
38941;DHT22;43236;47.208;7.518;2023-03-23T04:01:42;12.40;95.00
38941;DHT22;43236;47.208;7.518;2023-03-23T04:04:29;12.40;95.10
38941;DHT22;43236;47.208;7.518;2023-03-23T04:07:16;12.30;94.90
38941;DHT22;43236;47.208;7.518;2023-03-23T04:10:05;12.30;94.90
38941;DHT22;43236;47.208;7.518;2023-03-23T04:12:52;12.30;95.10
38941;DHT22;43236;47.208;7.518;2023-03-23T04:15:41;12.30;95.30
38941;DHT22;43236;47.208;7.518;2023-03-23T04:18:28;12.30;95.30
38941;DHT22;43236;47.208;7.518;2023-03-23T04:21:17;12.30;95.10
38941;DHT22;43236;47.208;7.518;2023-03-23T04:24:05;12.20;95.30
38941;DHT22;43236;47.208;7.518;2023-03-23T04:26:52;12.20;95.40
38941;DHT22;43236;47.208;7.518;2023-03-23T04:29:40;12.20;95.30
38941;DHT22;43236;47.208;7.518;2023-03-23T04:32:28;12.20;95.30
38941;DHT22;43236;47.208;7.518;2023-03-23T04:35:17;12.20;95.50
38941;DHT22;43236;47.208;7.518;2023-03-23T04:38:05;12.20;95.30
38941;DHT22;43236;47.208;7.518;2023-03-23T04:40:53;12.20;95.30
38941;DHT22;43236;47.208;7.518;2023-03-23T04:43:40;12.20;95.30
38941;DHT22;43236;47.208;7.518;2023-03-23T04:46:28;12.20;95.60
38941;DHT22;43236;47.208;7.518;2023-03-23T04:49:17;12.20;95.80
38941;DHT22;43236;47.208;7.518;2023-03-23T04:52:06;12.20;95.80
38941;DHT22;43236;47.208;7.518;2023-03-23T04:54:53;12.20;95.70
38941;DHT22;43236;47.208;7.518;2023-03-23T04:57:41;12.20;95.80
38941;DHT22;43236;47.208;7.518;2023-03-23T05:00:29;12.20;95.80
38941;DHT22;43236;47.208;7.518;2023-03-23T05:03:16;12.20;95.90
38941;DHT22;43236;47.208;7.518;2023-03-23T05:06:05;12.20;95.80
38941;DHT22;43236;47.208;7.518;2023-03-23T05:08:53;12.20;95.90
38941;DHT22;43236;47.208;7.518;2023-03-23T05:11:40;12.20;96.10
38941;DHT22;43236;47.208;7.518;2023-03-23T05:14:27;12.20;95.70
38941;DHT22;43236;47.208;7.518;2023-03-23T05:17:14;12.20;95.90
38941;DHT22;43236;47.208;7.518;2023-03-23T05:20:05;12.20;96.10
38941;DHT22;43236;47.208;7.518;2023-03-23T05:22:55;12.20;96.30
38941;DHT22;43236;47.208;7.518;2023-03-23T05:25:43;12.20;96.10
38941;DHT22;43236;47.208;7.518;2023-03-23T05:28:30;12.20;96.30
38941;DHT22;43236;47.208;7.518;2023-03-23T05:31:17;12.20;96.30
38941;DHT22;43236;47.208;7.518;2023-03-23T05:34:04;12.20;96.00
38941;DHT22;43236;47.208;7.518;2023-03-23T05:36:51;12.20;96.00
38941;DHT22;43236;47.208;7.518;2023-03-23T05:39:40;12.30;96.20
38941;DHT22;43236;47.208;7.518;2023-03-23T05:42:27;12.30;96.30
38941;DHT22;43236;47.208;7.518;2023-03-23T05:45:14;12.30;96.40
38941;DHT22;43236;47.208;7.518;2023-03-23T05:48:02;12.30;96.20
38941;DHT22;43236;47.208;7.518;2023-03-23T05:50:49;12.30;96.30
38941;DHT22;43236;47.208;7.518;2023-03-23T05:53:36;12.30;95.90
38941;DHT22;43236;47.208;7.518;2023-03-23T05:56:24;12.40;96.30
38941;DHT22;43236;47.208;7.518;2023-03-23T05:59:11;12.40;96.50
38941;DHT22;43236;47.208;7.518;2023-03-23T06:01:59;12.40;96.30
38941;DHT22;43236;47.208;7.518;2023-03-23T06:04:46;12.40;96.80
38941;DHT22;43236;47.208;7.518;2023-03-23T06:07:34;12.50;97.00
38941;DHT22;43236;47.208;7.518;2023-03-23T06:10:22;12.50;96.90
38941;DHT22;43236;47.208;7.518;2023-03-23T06:13:10;12.60;96.80
38941;DHT22;43236;47.208;7.518;2023-03-23T06:15:57;12.60;96.60
38941;DHT22;43236;47.208;7.518;2023-03-23T06:18:45;12.70;96.30
38941;DHT22;43236;47.208;7.518;2023-03-23T06:21:32;12.80;96.70
38941;DHT22;43236;47.208;7.518;2023-03-23T06:24:20;12.90;96.80
38941;DHT22;43236;47.208;7.518;2023-03-23T06:27:07;12.90;96.20
38941;DHT22;43236;47.208;7.518;2023-03-23T06:29:56;13.00;96.10
38941;DHT22;43236;47.208;7.518;2023-03-23T06:32:43;13.10;95.90
38941;DHT22;43236;47.208;7.518;2023-03-23T06:35:32;13.10;95.70
38941;DHT22;43236;47.208;7.518;2023-03-23T06:38:20;13.20;95.40
38941;DHT22;43236;47.208;7.518;2023-03-23T06:41:07;13.20;96.30
38941;DHT22;43236;47.208;7.518;2023-03-23T06:43:54;13.30;96.30
38941;DHT22;43236;47.208;7.518;2023-03-23T06:46:42;13.30;95.80
38941;DHT22;43236;47.208;7.518;2023-03-23T06:49:30;13.30;95.30
38941;DHT22;43236;47.208;7.518;2023-03-23T06:52:17;13.40;95.30
38941;DHT22;43236;47.208;7.518;2023-03-23T06:55:05;13.40;96.00
38941;DHT22;43236;47.208;7.518;2023-03-23T06:57:52;13.40;96.50
38941;DHT22;43236;47.208;7.518;2023-03-23T07:00:40;13.50;96.40
38941;DHT22;43236;47.208;7.518;2023-03-23T07:03:28;13.50;96.60
38941;DHT22;43236;47.208;7.518;2023-03-23T07:06:16;13.50;96.50
38941;DHT22;43236;47.208;7.518;2023-03-23T07:09:04;13.50;96.50
38941;DHT22;43236;47.208;7.518;2023-03-23T07:11:51;13.60;97.00
38941;DHT22;43236;47.208;7.518;2023-03-23T07:14:39;13.60;96.20
38941;DHT22;43236;47.208;7.518;2023-03-23T07:17:26;13.70;95.70
38941;DHT22;43236;47.208;7.518;2023-03-23T07:20:15;13.70;96.30
38941;DHT22;43236;47.208;7.518;2023-03-23T07:23:02;13.90;96.70
38941;DHT22;43236;47.208;7.518;2023-03-23T07:25:50;13.90;96.10
38941;DHT22;43236;47.208;7.518;2023-03-23T07:28:39;13.90;96.50
38941;DHT22;43236;47.208;7.518;2023-03-23T07:31:26;13.90;96.60
38941;DHT22;43236;47.208;7.518;2023-03-23T07:34:13;13.90;96.30
38941;DHT22;43236;47.208;7.518;2023-03-23T07:37:02;14.00;96.50
38941;DHT22;43236;47.208;7.518;2023-03-23T07:39:49;14.00;95.60
38941;DHT22;43236;47.208;7.518;2023-03-23T07:42:36;14.00;94.40
38941;DHT22;43236;47.208;7.518;2023-03-23T07:45:23;14.00;94.40
38941;DHT22;43236;47.208;7.518;2023-03-23T07:48:11;14.10;94.40
38941;DHT22;43236;47.208;7.518;2023-03-23T07:50:58;14.10;94.60
38941;DHT22;43236;47.208;7.518;2023-03-23T07:53:46;14.10;94.20
38941;DHT22;43236;47.208;7.518;2023-03-23T07:56:34;14.20;94.50
38941;DHT22;43236;47.208;7.518;2023-03-23T07:59:21;14.20;95.50
38941;DHT22;43236;47.208;7.518;2023-03-23T08:02:09;14.30;95.60
38941;DHT22;43236;47.208;7.518;2023-03-23T08:04:56;14.30;96.10
38941;DHT22;43236;47.208;7.518;2023-03-23T08:07:48;14.40;96.30
38941;DHT22;43236;47.208;7.518;2023-03-23T08:10:36;14.40;96.80
38941;DHT22;43236;47.208;7.518;2023-03-23T08:13:23;14.40;97.00
38941;DHT22;43236;47.208;7.518;2023-03-23T08:16:11;14.40;96.90
38941;DHT22;43236;47.208;7.518;2023-03-23T08:18:59;14.50;95.70
38941;DHT22;43236;47.208;7.518;2023-03-23T08:21:46;14.50;95.40
38941;DHT22;43236;47.208;7.518;2023-03-23T08:24:33;14.60;95.60
38941;DHT22;43236;47.208;7.518;2023-03-23T08:27:22;14.70;95.60
38941;DHT22;43236;47.208;7.518;2023-03-23T08:30:10;14.80;95.70
38941;DHT22;43236;47.208;7.518;2023-03-23T08:32:58;14.80;95.50
38941;DHT22;43236;47.208;7.518;2023-03-23T08:35:55;15.00;95.00
38941;DHT22;43236;47.208;7.518;2023-03-23T08:38:42;15.00;94.90
38941;DHT22;43236;47.208;7.518;2023-03-23T08:41:30;15.00;93.40
38941;DHT22;43236;47.208;7.518;2023-03-23T08:44:18;15.10;92.70
38941;DHT22;43236;47.208;7.518;2023-03-23T08:47:06;15.10;92.80
38941;DHT22;43236;47.208;7.518;2023-03-23T08:49:53;15.20;92.60
38941;DHT22;43236;47.208;7.518;2023-03-23T08:52:41;15.20;92.60
38941;DHT22;43236;47.208;7.518;2023-03-23T08:55:29;15.20;92.40
38941;DHT22;43236;47.208;7.518;2023-03-23T08:58:17;15.20;92.10
38941;DHT22;43236;47.208;7.518;2023-03-23T09:01:07;15.30;92.00
38941;DHT22;43236;47.208;7.518;2023-03-23T09:03:55;15.40;92.40
38941;DHT22;43236;47.208;7.518;2023-03-23T09:06:42;15.50;92.20
38941;DHT22;43236;47.208;7.518;2023-03-23T09:09:29;15.70;92.20
38941;DHT22;43236;47.208;7.518;2023-03-23T09:12:16;15.80;92.00
38941;DHT22;43236;47.208;7.518;2023-03-23T09:15:04;16.00;92.40
38941;DHT22;43236;47.208;7.518;2023-03-23T09:17:55;16.10;91.70
38941;DHT22;43236;47.208;7.518;2023-03-23T09:20:43;16.30;89.30
38941;DHT22;43236;47.208;7.518;2023-03-23T09:23:31;16.40;88.10
38941;DHT22;43236;47.208;7.518;2023-03-23T09:26:18;16.40;88.10
38941;DHT22;43236;47.208;7.518;2023-03-23T09:29:05;16.50;86.80
38941;DHT22;43236;47.208;7.518;2023-03-23T09:31:52;16.60;86.20
38941;DHT22;43236;47.208;7.518;2023-03-23T09:34:41;16.70;86.40
38941;DHT22;43236;47.208;7.518;2023-03-23T09:37:28;16.80;86.60
38941;DHT22;43236;47.208;7.518;2023-03-23T09:40:16;16.80;86.70
38941;DHT22;43236;47.208;7.518;2023-03-23T09:43:22;16.80;84.30
38941;DHT22;43236;47.208;7.518;2023-03-23T09:46:23;16.80;83.80
38941;DHT22;43236;47.208;7.518;2023-03-23T09:49:17;16.90;82.20
38941;DHT22;43236;47.208;7.518;2023-03-23T09:52:11;16.90;83.80
38941;DHT22;43236;47.208;7.518;2023-03-23T09:55:00;17.00;83.80
38941;DHT22;43236;47.208;7.518;2023-03-23T09:57:52;17.10;84.80
38941;DHT22;43236;47.208;7.518;2023-03-23T10:00:46;17.20;85.00
38941;DHT22;43236;47.208;7.518;2023-03-23T10:03:38;17.20;81.50
38941;DHT22;43236;47.208;7.518;2023-03-23T10:06:26;17.20;83.80
38941;DHT22;43236;47.208;7.518;2023-03-23T10:09:17;17.20;83.00
38941;DHT22;43236;47.208;7.518;2023-03-23T10:12:13;17.10;84.00
38941;DHT22;43236;47.208;7.518;2023-03-23T10:15:10;17.10;83.80
38941;DHT22;43236;47.208;7.518;2023-03-23T10:18:00;17.20;82.70
38941;DHT22;43236;47.208;7.518;2023-03-23T10:20:50;17.20;85.10
38941;DHT22;43236;47.208;7.518;2023-03-23T10:23:46;17.20;84.40
38941;DHT22;43236;47.208;7.518;2023-03-23T10:26:44;17.30;85.50
38941;DHT22;43236;47.208;7.518;2023-03-23T10:29:37;17.30;84.60
38941;DHT22;43236;47.208;7.518;2023-03-23T10:32:39;17.30;85.10
38941;DHT22;43236;47.208;7.518;2023-03-23T10:35:30;17.30;84.90
38941;DHT22;43236;47.208;7.518;2023-03-23T10:38:21;17.30;85.70
38941;DHT22;43236;47.208;7.518;2023-03-23T10:41:12;17.30;85.00
38941;DHT22;43236;47.208;7.518;2023-03-23T10:44:01;17.30;83.20
38941;DHT22;43236;47.208;7.518;2023-03-23T10:46:53;17.40;83.20
38941;DHT22;43236;47.208;7.518;2023-03-23T10:49:45;17.40;83.80
38941;DHT22;43236;47.208;7.518;2023-03-23T10:52:36;17.50;81.60
38941;DHT22;43236;47.208;7.518;2023-03-23T10:55:35;17.50;81.80
38941;DHT22;43236;47.208;7.518;2023-03-23T10:58:26;17.50;82.60
38941;DHT22;43236;47.208;7.518;2023-03-23T11:01:18;17.50;83.70
38941;DHT22;43236;47.208;7.518;2023-03-23T11:04:12;17.60;82.20
38941;DHT22;43236;47.208;7.518;2023-03-23T11:07:01;17.50;81.10
38941;DHT22;43236;47.208;7.518;2023-03-23T11:09:54;17.60;81.50
38941;DHT22;43236;47.208;7.518;2023-03-23T11:12:44;17.70;79.80
38941;DHT22;43236;47.208;7.518;2023-03-23T11:15:34;17.70;77.60
38941;DHT22;43236;47.208;7.518;2023-03-23T11:18:25;17.80;78.10
38941;DHT22;43236;47.208;7.518;2023-03-23T11:21:13;17.90;77.80
38941;DHT22;43236;47.208;7.518;2023-03-23T11:24:02;17.90;79.10
38941;DHT22;43236;47.208;7.518;2023-03-23T11:26:50;18.00;78.80
38941;DHT22;43236;47.208;7.518;2023-03-23T11:29:46;18.10;78.90
38941;DHT22;43236;47.208;7.518;2023-03-23T11:32:33;18.00;78.30
38941;DHT22;43236;47.208;7.518;2023-03-23T11:35:26;18.10;77.80
38941;DHT22;43236;47.208;7.518;2023-03-23T11:38:17;18.10;78.90
38941;DHT22;43236;47.208;7.518;2023-03-23T11:41:10;18.20;78.60
38941;DHT22;43236;47.208;7.518;2023-03-23T11:44:07;18.20;80.30
38941;DHT22;43236;47.208;7.518;2023-03-23T11:47:00;18.10;79.20
38941;DHT22;43236;47.208;7.518;2023-03-23T11:49:54;18.00;79.00
38941;DHT22;43236;47.208;7.518;2023-03-23T11:52:47;17.90;80.10
38941;DHT22;43236;47.208;7.518;2023-03-23T11:55:52;17.80;82.00
38941;DHT22;43236;47.208;7.518;2023-03-23T11:58:41;17.80;82.80
38941;DHT22;43236;47.208;7.518;2023-03-23T12:01:39;17.80;81.20
38941;DHT22;43236;47.208;7.518;2023-03-23T12:05:10;17.80;80.80
38941;DHT22;43236;47.208;7.518;2023-03-23T12:08:14;17.90;80.80
38941;DHT22;43236;47.208;7.518;2023-03-23T12:11:12;17.90;79.20
38941;DHT22;43236;47.208;7.518;2023-03-23T12:14:13;17.90;79.90
38941;DHT22;43236;47.208;7.518;2023-03-23T12:17:11;17.90;79.50
38941;DHT22;43236;47.208;7.518;2023-03-23T12:20:15;17.80;81.30
38941;DHT22;43236;47.208;7.518;2023-03-23T12:23:17;17.70;80.90
38941;DHT22;43236;47.208;7.518;2023-03-23T12:26:18;17.80;81.60
38941;DHT22;43236;47.208;7.518;2023-03-23T12:29:21;17.90;82.10
38941;DHT22;43236;47.208;7.518;2023-03-23T12:32:28;17.90;81.80
38941;DHT22;43236;47.208;7.518;2023-03-23T12:35:32;18.00;82.40
38941;DHT22;43236;47.208;7.518;2023-03-23T12:38:39;18.10;82.10
38941;DHT22;43236;47.208;7.518;2023-03-23T12:41:32;18.10;80.50
38941;DHT22;43236;47.208;7.518;2023-03-23T12:44:27;18.30;80.90
38941;DHT22;43236;47.208;7.518;2023-03-23T12:47:34;18.30;82.00
38941;DHT22;43236;47.208;7.518;2023-03-23T12:50:29;18.50;81.40
38941;DHT22;43236;47.208;7.518;2023-03-23T12:53:20;18.50;80.90
38941;DHT22;43236;47.208;7.518;2023-03-23T12:56:14;18.50;81.20
38941;DHT22;43236;47.208;7.518;2023-03-23T12:59:06;18.50;81.40
38941;DHT22;43236;47.208;7.518;2023-03-23T13:01:59;18.40;79.20
38941;DHT22;43236;47.208;7.518;2023-03-23T13:04:52;18.40;76.90
38941;DHT22;43236;47.208;7.518;2023-03-23T13:07:45;18.40;77.10
38941;DHT22;43236;47.208;7.518;2023-03-23T13:10:35;18.50;77.70
38941;DHT22;43236;47.208;7.518;2023-03-23T13:13:41;18.50;77.90
38941;DHT22;43236;47.208;7.518;2023-03-23T13:16:35;18.60;78.90
38941;DHT22;43236;47.208;7.518;2023-03-23T13:19:28;18.60;78.70
38941;DHT22;43236;47.208;7.518;2023-03-23T13:22:20;18.60;79.00
38941;DHT22;43236;47.208;7.518;2023-03-23T13:25:13;18.70;80.30
38941;DHT22;43236;47.208;7.518;2023-03-23T13:28:01;18.70;78.70
38941;DHT22;43236;47.208;7.518;2023-03-23T13:30:58;18.60;79.10
38941;DHT22;43236;47.208;7.518;2023-03-23T13:33:49;18.50;77.90
38941;DHT22;43236;47.208;7.518;2023-03-23T13:36:38;18.40;77.80
38941;DHT22;43236;47.208;7.518;2023-03-23T13:39:28;18.40;78.20
38941;DHT22;43236;47.208;7.518;2023-03-23T13:42:19;18.40;80.80
38941;DHT22;43236;47.208;7.518;2023-03-23T13:45:19;18.40;80.50
38941;DHT22;43236;47.208;7.518;2023-03-23T13:48:20;18.40;79.40
38941;DHT22;43236;47.208;7.518;2023-03-23T13:51:26;18.40;81.00
38941;DHT22;43236;47.208;7.518;2023-03-23T13:54:23;18.30;80.20
38941;DHT22;43236;47.208;7.518;2023-03-23T13:57:32;18.30;80.90
38941;DHT22;43236;47.208;7.518;2023-03-23T14:00:35;18.20;81.30
38941;DHT22;43236;47.208;7.518;2023-03-23T14:03:32;18.30;81.40
38941;DHT22;43236;47.208;7.518;2023-03-23T14:06:21;18.20;81.30
38941;DHT22;43236;47.208;7.518;2023-03-23T14:09:13;18.20;80.90
38941;DHT22;43236;47.208;7.518;2023-03-23T14:12:04;18.20;80.00
38941;DHT22;43236;47.208;7.518;2023-03-23T14:14:56;18.20;81.10
38941;DHT22;43236;47.208;7.518;2023-03-23T14:17:47;18.30;80.00
38941;DHT22;43236;47.208;7.518;2023-03-23T14:20:38;18.30;79.50
38941;DHT22;43236;47.208;7.518;2023-03-23T14:23:25;18.30;81.30
38941;DHT22;43236;47.208;7.518;2023-03-23T14:26:16;18.30;80.80
38941;DHT22;43236;47.208;7.518;2023-03-23T14:29:04;18.30;80.60
38941;DHT22;43236;47.208;7.518;2023-03-23T14:31:57;18.20;80.10
38941;DHT22;43236;47.208;7.518;2023-03-23T14:34:46;18.10;79.40
38941;DHT22;43236;47.208;7.518;2023-03-23T14:37:35;18.10;78.50
38941;DHT22;43236;47.208;7.518;2023-03-23T14:40:26;18.00;78.30
38941;DHT22;43236;47.208;7.518;2023-03-23T14:43:16;18.00;78.80
38941;DHT22;43236;47.208;7.518;2023-03-23T14:46:06;18.00;78.60
38941;DHT22;43236;47.208;7.518;2023-03-23T14:48:54;18.00;79.00
38941;DHT22;43236;47.208;7.518;2023-03-23T14:51:48;18.00;78.40
38941;DHT22;43236;47.208;7.518;2023-03-23T14:54:37;18.00;79.20
38941;DHT22;43236;47.208;7.518;2023-03-23T14:57:28;18.00;77.60
38941;DHT22;43236;47.208;7.518;2023-03-23T15:00:17;18.00;77.00
38941;DHT22;43236;47.208;7.518;2023-03-23T15:03:06;18.00;76.90
38941;DHT22;43236;47.208;7.518;2023-03-23T15:05:56;18.00;76.80
38941;DHT22;43236;47.208;7.518;2023-03-23T15:08:45;17.90;79.10
38941;DHT22;43236;47.208;7.518;2023-03-23T15:11:36;17.90;79.40
38941;DHT22;43236;47.208;7.518;2023-03-23T15:14:28;17.90;80.60
38941;DHT22;43236;47.208;7.518;2023-03-23T15:17:19;17.90;80.30
38941;DHT22;43236;47.208;7.518;2023-03-23T15:20:09;17.80;79.60
38941;DHT22;43236;47.208;7.518;2023-03-23T15:23:04;17.80;79.20
38941;DHT22;43236;47.208;7.518;2023-03-23T15:25:52;17.80;79.20
38941;DHT22;43236;47.208;7.518;2023-03-23T15:28:41;17.70;80.40
38941;DHT22;43236;47.208;7.518;2023-03-23T15:31:28;17.70;80.40
38941;DHT22;43236;47.208;7.518;2023-03-23T15:34:20;17.70;80.50
38941;DHT22;43236;47.208;7.518;2023-03-23T15:37:19;17.70;80.10
38941;DHT22;43236;47.208;7.518;2023-03-23T15:40:15;17.70;80.60
38941;DHT22;43236;47.208;7.518;2023-03-23T15:43:08;17.60;80.40
38941;DHT22;43236;47.208;7.518;2023-03-23T15:46:05;17.60;79.80
38941;DHT22;43236;47.208;7.518;2023-03-23T15:49:08;17.60;80.20
38941;DHT22;43236;47.208;7.518;2023-03-23T15:51:59;17.60;81.30
38941;DHT22;43236;47.208;7.518;2023-03-23T15:54:47;17.60;80.80
38941;DHT22;43236;47.208;7.518;2023-03-23T15:57:34;17.50;80.70
38941;DHT22;43236;47.208;7.518;2023-03-23T16:00:23;17.60;80.60
38941;DHT22;43236;47.208;7.518;2023-03-23T16:03:15;17.60;80.10
38941;DHT22;43236;47.208;7.518;2023-03-23T16:06:04;17.50;79.70
38941;DHT22;43236;47.208;7.518;2023-03-23T16:08:51;17.50;79.90
38941;DHT22;43236;47.208;7.518;2023-03-23T16:11:38;17.50;80.00
38941;DHT22;43236;47.208;7.518;2023-03-23T16:14:25;17.40;79.20
38941;DHT22;43236;47.208;7.518;2023-03-23T16:17:18;17.40;79.10
38941;DHT22;43236;47.208;7.518;2023-03-23T16:20:12;17.30;79.40
38941;DHT22;43236;47.208;7.518;2023-03-23T16:23:00;17.30;79.50
38941;DHT22;43236;47.208;7.518;2023-03-23T16:25:47;17.20;79.70
38941;DHT22;43236;47.208;7.518;2023-03-23T16:28:34;17.30;79.30
38941;DHT22;43236;47.208;7.518;2023-03-23T16:31:21;17.20;78.90
38941;DHT22;43236;47.208;7.518;2023-03-23T16:34:08;17.10;79.20
38941;DHT22;43236;47.208;7.518;2023-03-23T16:36:57;17.10;79.40
38941;DHT22;43236;47.208;7.518;2023-03-23T16:39:44;17.10;79.50
38941;DHT22;43236;47.208;7.518;2023-03-23T16:42:31;17.10;80.30
38941;DHT22;43236;47.208;7.518;2023-03-23T16:45:19;17.00;80.20
38941;DHT22;43236;47.208;7.518;2023-03-23T16:48:07;17.00;80.70
38941;DHT22;43236;47.208;7.518;2023-03-23T16:50:54;17.00;81.10
38941;DHT22;43236;47.208;7.518;2023-03-23T16:53:42;17.00;81.40
38941;DHT22;43236;47.208;7.518;2023-03-23T16:56:29;16.90;81.20
38941;DHT22;43236;47.208;7.518;2023-03-23T16:59:16;16.90;81.30
38941;DHT22;43236;47.208;7.518;2023-03-23T17:02:03;16.80;81.50
38941;DHT22;43236;47.208;7.518;2023-03-23T17:04:51;16.80;82.20
38941;DHT22;43236;47.208;7.518;2023-03-23T17:07:38;16.70;83.40
38941;DHT22;43236;47.208;7.518;2023-03-23T17:10:28;16.70;82.90
38941;DHT22;43236;47.208;7.518;2023-03-23T17:13:15;16.60;82.20
38941;DHT22;43236;47.208;7.518;2023-03-23T17:16:03;16.60;82.60
38941;DHT22;43236;47.208;7.518;2023-03-23T17:18:50;16.50;82.70
38941;DHT22;43236;47.208;7.518;2023-03-23T17:21:37;16.50;82.70
38941;DHT22;43236;47.208;7.518;2023-03-23T17:24:25;16.40;82.80
38941;DHT22;43236;47.208;7.518;2023-03-23T17:27:14;16.40;83.00
38941;DHT22;43236;47.208;7.518;2023-03-23T17:30:02;16.40;82.80
38941;DHT22;43236;47.208;7.518;2023-03-23T17:32:49;16.30;82.80
38941;DHT22;43236;47.208;7.518;2023-03-23T17:35:38;16.30;82.70
38941;DHT22;43236;47.208;7.518;2023-03-23T17:38:25;16.30;82.90
38941;DHT22;43236;47.208;7.518;2023-03-23T17:41:12;16.30;85.70
38941;DHT22;43236;47.208;7.518;2023-03-23T17:44:01;16.20;84.30
38941;DHT22;43236;47.208;7.518;2023-03-23T17:46:48;16.20;83.60
38941;DHT22;43236;47.208;7.518;2023-03-23T17:49:35;16.10;83.10
38941;DHT22;43236;47.208;7.518;2023-03-23T17:52:22;16.10;83.50
38941;DHT22;43236;47.208;7.518;2023-03-23T17:55:10;16.10;83.50
38941;DHT22;43236;47.208;7.518;2023-03-23T17:57:57;16.10;83.80
38941;DHT22;43236;47.208;7.518;2023-03-23T18:00:45;16.10;83.80
38941;DHT22;43236;47.208;7.518;2023-03-23T18:03:32;16.10;84.00